Time;durP1;ratioP1;P1;durP2;ratioP2;P2;SDS_P1;SDS_P2;PMS_P1;PMS_P2;Temp;Humidity;BMP_temperature;BMP_pressure;BME280_temperature;BME280_humidity;BME280_pressure;Samples;Min_cycle;Max_cycle;Signal;HPM_P1;HPM_P2
2023/07/27 00:02:22;;;;;;;0.22;0.22;;;;;;;16.50;92.85;99433.31;6287653;28;20052;-72
2023/07/27 00:05:23;;;;;;;1.00;0.30;;;;;;;16.35;92.05;99442.66;6271525;28;20103;-73
2023/07/27 00:08:24;;;;;;;0.13;0.13;;;;;;;16.35;90.78;99450.53;6254596;28;20485;-73
2023/07/27 00:11:25;;;;;;;0.30;0.20;;;;;;;16.27;91.61;99446.03;6254849;28;20489;-73
2023/07/27 00:14:26;;;;;;;0.55;0.38;;;;;;;16.45;91.63;99453.97;6287749;28;20057;-72
2023/07/27 00:17:26;;;;;;;0.40;0.20;;;;;;;16.42;91.08;99452.47;6254733;28;20060;-73
2023/07/27 00:20:27;;;;;;;0.20;0.20;;;;;;;16.24;92.06;99464.72;6254003;28;20097;-73
2023/07/27 00:23:28;;;;;;;0.30;0.30;;;;;;;16.30;92.24;99469.41;6254600;28;20427;-73
2023/07/27 00:26:29;;;;;;;0.30;0.30;;;;;;;16.40;92.40;99458.84;6267460;28;20074;-72
2023/07/27 00:29:30;;;;;;;1.42;0.40;;;;;;;16.37;92.12;99469.66;6278378;28;20057;-72
2023/07/27 00:32:30;;;;;;;0.10;0.10;;;;;;;16.20;93.39;99473.88;6279968;28;20065;-72
2023/07/27 00:35:31;;;;;;;0.25;0.25;;;;;;;16.21;96.34;99468.47;6287082;28;20051;-72
2023/07/27 00:38:32;;;;;;;0.22;0.22;;;;;;;16.22;98.82;99467.50;6287343;28;20135;-71
2023/07/27 00:41:33;;;;;;;0.35;0.20;;;;;;;16.07;97.58;99472.41;6253973;28;20141;-72
2023/07/27 00:44:34;;;;;;;0.40;0.13;;;;;;;16.01;95.57;99474.78;6287296;28;20053;-72
2023/07/27 00:47:35;;;;;;;0.20;0.20;;;;;;;16.05;93.57;99466.44;6297731;28;20135;-71
2023/07/27 00:50:36;;;;;;;0.65;0.57;;;;;;;16.10;92.55;99477.38;6259097;28;20420;-71
2023/07/27 00:53:37;;;;;;;0.30;0.30;;;;;;;16.03;90.79;99476.28;6287258;28;20179;-71
2023/07/27 00:56:39;;;;;;;0.30;0.22;;;;;;;16.10;89.46;99480.03;6287433;28;20056;-71
2023/07/27 00:59:40;;;;;;;1.17;0.50;;;;;;;16.14;90.74;99485.81;6271692;28;20103;-71
2023/07/27 01:02:41;;;;;;;0.30;0.30;;;;;;;15.82;91.59;99491.44;6253926;28;20503;-71
2023/07/27 01:05:42;;;;;;;0.30;0.30;;;;;;;16.13;92.95;99491.22;6287020;28;20056;-71
2023/07/27 01:08:43;;;;;;;0.47;0.20;;;;;;;16.22;94.06;99490.38;6254005;28;20053;-72
2023/07/27 01:11:51;;;;;;;0.30;0.30;;;;;;;16.12;94.34;99490.38;6271596;28;20489;-71
2023/07/27 01:14:54;;;;;;;3.70;0.50;;;;;;;16.16;95.78;99488.31;6286765;28;20464;-72
2023/07/27 01:18:10;;;;;;;1.48;0.43;;;;;;;15.94;96.75;99486.81;6253686;28;20149;-73
2023/07/27 01:21:26;;;;;;;1.13;0.30;;;;;;;15.99;96.39;99488.06;6286966;28;20045;-73
2023/07/27 01:24:55;;;;;;;0.20;0.13;;;;;;;15.93;97.39;99495.69;6286852;28;20054;-72
2023/07/27 01:28:07;;;;;;;0.28;0.20;;;;;;;16.10;97.42;99503.72;6276281;28;20056;-73
2023/07/27 01:31:26;;;;;;;4.18;0.30;;;;;;;16.08;95.85;99495.13;6278130;28;20053;-73
2023/07/27 01:34:31;;;;;;;0.40;0.30;;;;;;;16.18;95.67;99500.34;6296135;28;20559;-72
2023/07/27 01:37:35;;;;;;;3.60;0.50;;;;;;;16.11;94.79;99496.63;6296131;28;20044;-73
2023/07/27 01:40:39;;;;;;;0.43;0.30;;;;;;;16.12;95.23;99503.53;6278466;28;20131;-73
2023/07/27 01:43:41;;;;;;;0.30;0.25;;;;;;;16.27;96.72;99509.19;6296158;28;20048;-73
2023/07/27 01:46:44;;;;;;;0.20;0.20;;;;;;;16.23;94.77;99516.53;6298526;28;20071;-73
2023/07/27 01:49:46;;;;;;;0.25;0.22;;;;;;;16.23;92.82;99516.53;6282996;28;20045;-73
2023/07/27 01:52:47;;;;;;;0.75;0.40;;;;;;;16.26;92.46;99526.78;6283009;28;20140;-72
2023/07/27 01:55:49;;;;;;;0.30;0.30;;;;;;;16.07;90.64;99521.56;6282898;28;20063;-72
2023/07/27 01:58:52;;;;;;;0.40;0.40;;;;;;;16.07;91.26;99529.47;6282914;28;20110;-72
2023/07/27 02:01:54;;;;;;;1.45;0.45;;;;;;;16.00;91.35;99520.47;6300445;28;20055;-71
2023/07/27 02:04:57;;;;;;;0.28;0.25;;;;;;;15.64;92.61;99522.84;6282706;28;20399;-73
2023/07/27 02:07:58;;;;;;;0.32;0.15;;;;;;;15.92;92.51;99529.09;6300391;28;20092;-73
2023/07/27 02:11:05;;;;;;;0.35;0.20;;;;;;;15.97;94.20;99528.66;6300191;28;20051;-73
2023/07/27 02:14:31;;;;;;;0.40;0.30;;;;;;;16.07;94.04;99526.84;6282390;28;20098;-71
2023/07/27 02:17:39;;;;;;;0.20;0.20;;;;;;;16.11;94.61;99536.09;6282575;28;20044;-72
2023/07/27 02:20:41;;;;;;;0.80;0.50;;;;;;;15.98;95.19;99530.28;6276290;28;20144;-72
2023/07/27 02:23:43;;;;;;;0.20;0.20;;;;;;;15.90;95.91;99526.59;6275401;28;20091;-71
2023/07/27 02:26:46;;;;;;;0.32;0.30;;;;;;;15.97;96.74;99528.66;6290608;28;20128;-72
2023/07/27 02:29:47;;;;;;;0.28;0.15;;;;;;;15.58;96.88;99518.94;6274973;28;20057;-71
2023/07/27 02:32:48;;;;;;;0.10;0.10;;;;;;;15.80;97.93;99530.22;6275139;28;20540;-71
2023/07/27 02:35:49;;;;;;;0.45;0.30;;;;;;;15.70;97.76;99530.16;6274891;28;20045;-72
2023/07/27 02:38:50;;;;;;;0.20;0.20;;;;;;;15.61;98.46;99526.59;6275170;28;20118;-71
2023/07/27 02:41:50;;;;;;;0.20;0.20;;;;;;;15.56;99.59;99531.41;6257174;28;20048;-71
2023/07/27 02:44:51;;;;;;;3.55;0.30;;;;;;;15.46;100.00;99531.44;6274828;28;20107;-71
2023/07/27 02:47:55;;;;;;;2.10;0.20;;;;;;;15.20;100.00;99531.13;6274611;28;20087;-71
2023/07/27 02:50:58;;;;;;;0.30;0.30;;;;;;;15.45;100.00;99532.38;6257013;28;20049;-72
2023/07/27 02:53:59;;;;;;;3.10;0.40;;;;;;;15.66;100.00;99539.31;6274237;28;20493;-71
2023/07/27 02:57:00;;;;;;;0.30;0.30;;;;;;;15.64;100.00;99533.34;6274308;28;20052;-71
2023/07/27 03:00:00;;;;;;;0.20;0.20;;;;;;;15.61;100.00;99537.09;6256561;28;20053;-71
2023/07/27 03:03:01;;;;;;;0.30;0.30;;;;;;;15.40;100.00;99536.38;6289553;28;20052;-72
2023/07/27 03:06:05;;;;;;;0.20;0.20;;;;;;;15.39;100.00;99545.25;6289564;28;20053;-71
2023/07/27 03:09:05;;;;;;;0.30;0.30;;;;;;;15.30;100.00;99545.09;6274069;28;20049;-71
2023/07/27 03:12:07;;;;;;;0.93;0.30;;;;;;;15.14;100.00;99539.53;6256251;28;20055;-71
2023/07/27 03:15:08;;;;;;;0.20;0.20;;;;;;;15.23;100.00;99546.59;6289219;28;20160;-71
2023/07/27 03:18:09;;;;;;;0.52;0.20;;;;;;;15.10;100.00;99556.53;6305183;28;20512;-72
2023/07/27 03:21:10;;;;;;;0.67;0.40;;;;;;;15.25;100.00;99552.53;6279666;28;20053;-71
2023/07/27 03:24:16;;;;;;;0.35;0.20;;;;;;;15.17;100.00;99557.66;6283682;28;20809;-72
2023/07/27 03:27:17;;;;;;;1.13;0.50;;;;;;;15.15;100.00;99559.56;6298420;28;20052;-71
2023/07/27 03:30:17;;;;;;;0.20;0.20;;;;;;;15.10;100.00;99567.06;6286143;28;20064;-71
2023/07/27 03:33:18;;;;;;;0.50;0.30;;;;;;;15.16;100.00;99569.16;6268273;28;20053;-71
2023/07/27 03:36:20;;;;;;;2.13;0.35;;;;;;;15.13;100.00;99572.03;6297497;28;20059;-71
2023/07/27 03:39:21;;;;;;;0.43;0.22;;;;;;;15.13;100.00;99566.78;6298248;28;20094;-72
2023/07/27 03:42:22;;;;;;;0.95;0.30;;;;;;;15.19;100.00;99573.28;6297839;28;20097;-71
2023/07/27 03:45:22;;;;;;;2.50;0.63;;;;;;;15.01;100.00;99584.47;6297978;28;20044;-72
2023/07/27 03:48:25;;;;;;;0.20;0.20;;;;;;;15.21;100.00;99577.44;6279978;28;20487;-73
2023/07/27 03:51:26;;;;;;;4.47;0.30;;;;;;;14.99;100.00;99586.38;6273466;28;20048;-73
2023/07/27 03:54:27;;;;;;;0.65;0.43;;;;;;;14.97;100.00;99595.34;6288400;28;20094;-73
2023/07/27 03:57:27;;;;;;;1.13;0.20;;;;;;;15.18;100.00;99587.41;6255439;28;20061;-72
2023/07/27 04:00:28;;;;;;;0.20;0.20;;;;;;;14.91;100.00;99596.72;6288402;28;20178;-73
2023/07/27 04:03:29;;;;;;;2.35;0.50;;;;;;;14.87;100.00;99606.66;6288573;28;20060;-73
2023/07/27 04:06:30;;;;;;;0.52;0.20;;;;;;;14.99;100.00;99603.91;6255703;28;20048;-72
2023/07/27 04:09:31;;;;;;;0.30;0.20;;;;;;;15.06;100.00;99607.69;6290036;28;20048;-73
2023/07/27 04:12:33;;;;;;;0.22;0.20;;;;;;;14.98;100.00;99600.47;6253955;28;20059;-73
2023/07/27 04:15:34;;;;;;;0.40;0.35;;;;;;;15.15;100.00;99595.53;6258786;28;20048;-73
2023/07/27 04:18:34;;;;;;;0.40;0.30;;;;;;;15.21;100.00;99602.91;6279433;28;20072;-73
2023/07/27 04:21:35;;;;;;;1.08;0.38;;;;;;;15.21;99.90;99605.53;6271942;28;20059;-73
2023/07/27 04:24:38;;;;;;;0.20;0.20;;;;;;;15.37;100.00;99600.59;6272418;28;20106;-73
2023/07/27 04:27:39;;;;;;;1.15;0.40;;;;;;;15.33;99.70;99609.69;6272345;28;20049;-73
2023/07/27 04:30:40;;;;;;;0.63;0.45;;;;;;;15.45;98.66;99606.00;6257207;28;20391;-73
2023/07/27 04:33:43;;;;;;;0.70;0.60;;;;;;;15.40;96.46;99615.25;6285645;28;20080;-73
2023/07/27 04:36:45;;;;;;;0.85;0.50;;;;;;;15.40;95.19;99612.63;6272213;28;20059;-73
2023/07/27 04:39:46;;;;;;;2.00;0.50;;;;;;;15.43;94.85;99621.06;6284285;28;20126;-73
2023/07/27 04:42:47;;;;;;;0.70;0.40;;;;;;;15.46;94.90;99627.84;6278628;28;20485;-73
2023/07/27 04:45:48;;;;;;;0.82;0.43;;;;;;;15.38;95.16;99639.06;6296965;28;20055;-73
2023/07/27 04:48:49;;;;;;;0.38;0.38;;;;;;;15.53;93.24;99639.50;6296735;28;20048;-72
2023/07/27 04:51:49;;;;;;;0.50;0.50;;;;;;;15.64;92.65;99631.47;6295991;28;20131;-73
2023/07/27 04:54:50;;;;;;;0.45;0.38;;;;;;;15.74;90.48;99636.78;6278763;28;20048;-73
2023/07/27 04:57:51;;;;;;;0.30;0.25;;;;;;;15.81;86.04;99645.78;6296758;28;20052;-73
2023/07/27 05:00:55;;;;;;;1.08;0.63;;;;;;;15.68;87.44;99646.03;6265243;28;20139;-71
2023/07/27 05:03:56;;;;;;;0.93;0.57;;;;;;;15.78;89.03;99637.34;6278530;28;20484;-71
2023/07/27 05:06:57;;;;;;;1.15;0.60;;;;;;;15.73;88.14;99656.19;6296743;28;20090;-72
2023/07/27 05:09:57;;;;;;;2.85;0.63;;;;;;;15.75;88.00;99659.50;6296659;28;20139;-71
2023/07/27 05:12:58;;;;;;;1.00;0.63;;;;;;;15.93;85.05;99664.09;6290602;28;20106;-72
2023/07/27 05:15:59;;;;;;;0.63;0.63;;;;;;;15.86;89.21;99661.19;6256414;28;20139;-72
2023/07/27 05:18:59;;;;;;;1.13;0.60;;;;;;;15.76;91.91;99666.41;6258964;28;20131;-71
2023/07/27 05:22:00;;;;;;;0.60;0.60;;;;;;;16.06;88.02;99669.91;6281070;28;20135;-72
2023/07/27 05:25:04;;;;;;;0.50;0.50;;;;;;;16.07;86.86;99667.13;6282207;28;20048;-73
2023/07/27 05:28:05;;;;;;;1.23;0.60;;;;;;;16.36;85.57;99681.25;6283447;28;20059;-73
2023/07/27 05:31:07;;;;;;;1.15;0.57;;;;;;;16.50;84.47;99675.56;6295942;28;20048;-72
2023/07/27 05:34:08;;;;;;;;;;;;;;;16.47;79.81;99674.06;6300598;28;20049;-73
2023/07/27 05:50:11;;;;;;;3.42;0.60;;;;;;;17.21;70.77;99685.66;6287087;28;20418;-70
2023/07/27 05:53:12;;;;;;;0.65;0.50;;;;;;;17.10;69.61;99691.13;6269694;28;20424;-70
2023/07/27 05:56:13;;;;;;;0.52;0.50;;;;;;;17.44;72.21;99694.03;6270752;28;20057;-70
2023/07/27 05:59:14;;;;;;;0.57;0.47;;;;;;;17.45;68.93;99697.50;6264439;28;20053;-69
2023/07/27 06:02:15;;;;;;;2.55;0.63;;;;;;;17.45;69.71;99702.75;6279957;28;20465;-70
2023/07/27 06:05:16;;;;;;;0.60;0.40;;;;;;;17.78;71.45;99696.03;6271010;28;20056;-70
2023/07/27 06:08:17;;;;;;;0.93;0.50;;;;;;;17.67;67.12;99706.81;6254636;28;20136;-70
2023/07/27 06:11:18;;;;;;;1.38;1.15;;;;;;;17.51;67.44;99707.44;6249616;28;20050;-70
2023/07/27 06:14:19;;;;;;;3.63;0.60;;;;;;;17.83;68.35;99699.13;6248671;28;20123;-72
2023/07/27 06:17:20;;;;;;;4.05;0.80;;;;;;;17.89;68.24;99698.53;6264926;28;20386;-72
2023/07/27 06:20:21;;;;;;;0.47;0.47;;;;;;;18.06;67.28;99694.22;6265451;28;20507;-72
2023/07/27 06:23:22;;;;;;;2.05;0.32;;;;;;;18.26;64.75;99699.34;6265894;28;20053;-73
2023/07/27 06:26:23;;;;;;;0.70;0.40;;;;;;;18.57;63.62;99704.22;6269257;28;20534;-72
2023/07/27 06:29:26;;;;;;;3.78;0.50;;;;;;;18.38;60.74;99699.94;6273199;28;20218;-72
2023/07/27 06:32:27;;;;;;;0.60;0.43;;;;;;;18.77;64.55;99700.41;6290165;28;20060;-72
2023/07/27 06:35:30;;;;;;;0.80;0.50;;;;;;;18.90;62.19;99702.66;6266369;28;20049;-72
2023/07/27 06:38:32;;;;;;;0.50;0.50;;;;;;;19.24;63.23;99707.16;6267186;28;20041;-72
2023/07/27 06:41:33;;;;;;;0.40;0.40;;;;;;;19.45;63.22;99710.22;6273869;28;20068;-72
2023/07/27 06:44:36;;;;;;;0.60;0.35;;;;;;;19.46;61.61;99706.59;6279672;28;20049;-72
2023/07/27 06:47:37;;;;;;;1.13;0.57;;;;;;;19.64;63.04;99716.22;6265788;28;20404;-72
2023/07/27 06:50:38;;;;;;;0.57;0.40;;;;;;;19.49;61.70;99713.38;6253031;28;20563;-73
2023/07/27 06:53:38;;;;;;;1.08;0.63;;;;;;;19.63;62.21;99712.75;6249421;28;20275;-72
2023/07/27 06:56:39;;;;;;;1.45;0.60;;;;;;;19.76;60.35;99720.28;6250448;28;20057;-72
2023/07/27 06:59:40;;;;;;;0.40;0.40;;;;;;;19.77;59.13;99721.94;6250437;28;20489;-72
2023/07/27 07:02:41;;;;;;;0.80;0.43;;;;;;;20.01;58.93;99721.16;6249180;28;20054;-73
2023/07/27 07:05:42;;;;;;;0.63;0.45;;;;;;;20.12;58.75;99722.69;6250475;28;20049;-72
2023/07/27 07:08:42;;;;;;;0.88;0.77;;;;;;;20.36;59.88;99721.03;6249075;28;20128;-73
2023/07/27 07:11:43;;;;;;;1.00;0.40;;;;;;;20.46;59.47;99733.13;6249066;28;20135;-73
2023/07/27 07:14:44;;;;;;;0.73;0.40;;;;;;;20.79;58.72;99725.19;6249025;28;20128;-72
2023/07/27 07:17:44;;;;;;;3.47;0.50;;;;;;;20.70;56.38;99726.22;6248701;28;20046;-72
2023/07/27 07:20:46;;;;;;;0.98;0.60;;;;;;;20.89;56.59;99731.13;6249005;28;20053;-72
2023/07/27 07:23:49;;;;;;;1.00;0.45;;;;;;;20.85;56.94;99731.66;6248676;28;20053;-72
2023/07/27 07:26:50;;;;;;;0.93;0.40;;;;;;;21.09;57.22;99739.56;6248795;28;20053;-73
2023/07/27 07:29:50;;;;;;;1.20;0.60;;;;;;;21.15;58.53;99735.41;6249743;28;20088;-72
2023/07/27 07:32:51;;;;;;;3.80;0.30;;;;;;;21.38;57.48;99737.34;6248808;28;20076;-72
2023/07/27 07:35:51;;;;;;;0.50;0.50;;;;;;;21.23;55.78;99737.19;6248441;28;20436;-72
2023/07/27 07:38:52;;;;;;;0.30;0.30;;;;;;;21.61;52.50;99740.09;6249507;28;20055;-72
2023/07/27 07:41:53;;;;;;;0.60;0.50;;;;;;;21.85;53.64;99736.50;6249600;28;20489;-72
2023/07/27 07:44:56;;;;;;;0.30;0.30;;;;;;;21.87;52.52;99732.66;6249455;28;20054;-73
2023/07/27 07:47:57;;;;;;;3.78;0.45;;;;;;;21.96;54.37;99735.28;6249311;28;20053;-72
2023/07/27 07:50:58;;;;;;;0.67;0.57;;;;;;;21.72;53.48;99740.53;6249237;28;20115;-72
2023/07/27 07:53:59;;;;;;;0.60;0.47;;;;;;;21.49;54.63;99742.28;6248203;28;20473;-72
2023/07/27 07:56:59;;;;;;;0.40;0.40;;;;;;;21.49;51.93;99742.28;6248951;28;20450;-72
2023/07/27 08:00:00;;;;;;;2.23;0.60;;;;;;;22.00;51.05;99750.69;6248029;28;20056;-72
2023/07/27 08:03:01;;;;;;;0.57;0.43;;;;;;;22.08;47.82;99750.63;6248355;28;20570;-72
2023/07/27 08:06:01;;;;;;;5.33;0.70;;;;;;;22.02;46.30;99745.19;6248981;28;20053;-72
2023/07/27 08:09:02;;;;;;;0.50;0.40;;;;;;;21.60;45.13;99736.63;6248802;28;20071;-72
2023/07/27 08:12:03;;;;;;;1.13;0.47;;;;;;;22.12;43.67;99733.34;6247843;28;20493;-71
2023/07/27 08:15:07;;;;;;;1.00;0.63;;;;;;;22.09;45.11;99736.34;6247537;28;20052;-72
2023/07/27 08:18:09;;;;;;;0.90;0.55;;;;;;;22.53;45.27;99735.72;6248396;28;20050;-72
2023/07/27 08:21:09;;;;;;;0.83;0.57;;;;;;;22.45;46.42;99735.78;6248767;28;20464;-72
2023/07/27 08:24:10;;;;;;;0.20;0.20;;;;;;;22.83;42.19;99735.78;6248455;28;20061;-72
2023/07/27 08:27:11;;;;;;;0.40;0.30;;;;;;;23.24;42.91;99735.38;6247214;28;20067;-72
2023/07/27 08:30:11;;;;;;;1.10;0.60;;;;;;;22.31;40.22;99733.91;6248899;28;20057;-72
2023/07/27 08:33:15;;;;;;;1.00;0.63;;;;;;;22.17;41.96;99747.91;6248434;28;20100;-72
2023/07/27 08:36:16;;;;;;;0.52;0.52;;;;;;;22.71;41.54;99732.75;6247936;28;20108;-72
2023/07/27 08:39:16;;;;;;;0.97;0.60;;;;;;;23.31;41.07;99738.16;6247159;28;20489;-72
2023/07/27 08:42:18;;;;;;;0.40;0.40;;;;;;;23.33;39.81;99744.13;6248137;28;20049;-72
2023/07/27 08:45:20;;;;;;;;;;;;;;;23.19;43.42;99753.75;6248321;28;20053;-72
2023/07/27 08:48:23;;;;;;;;;;;;;;;23.53;42.44;99747.88;6248219;28;20016;-72
2023/07/27 08:51:24;;;;;;;0.60;0.50;;;;;;;23.46;40.47;99748.78;6247832;28;19932;-72
2023/07/27 08:54:24;;;;;;;0.37;0.37;;;;;;;23.49;42.65;99740.41;6247991;28;20053;-72
2023/07/27 08:57:25;;;;;;;0.67;0.43;;;;;;;23.41;43.59;99744.03;6246408;28;20096;-72
2023/07/27 09:00:26;;;;;;;0.50;0.50;;;;;;;23.94;42.02;99738.53;6247895;28;20049;-72
2023/07/27 09:03:27;;;;;;;0.87;0.70;;;;;;;23.93;41.56;99735.06;6246466;28;20060;-73
2023/07/27 09:06:44;;;;;;;0.80;0.50;;;;;;;23.07;41.12;99737.41;6247652;28;20050;-72
2023/07/27 09:09:52;;;;;;;1.67;0.70;;;;;;;23.81;42.10;99747.22;6246289;28;20088;-72
2023/07/27 09:12:59;;;;;;;1.55;0.70;;;;;;;23.34;42.15;99738.59;6247414;28;20045;-73
2023/07/27 09:16:06;;;;;;;1.23;0.50;;;;;;;23.58;41.56;99751.81;6247287;28;20061;-72
2023/07/27 09:19:09;;;;;;;1.00;0.70;;;;;;;23.67;38.86;99751.50;6246178;28;20061;-72
2023/07/27 09:22:11;;;;;;;0.57;0.50;;;;;;;24.03;38.21;99741.91;6247279;28;20064;-72
2023/07/27 09:25:12;;;;;;;1.65;0.60;;;;;;;23.80;39.03;99745.53;6246100;28;20053;-72
2023/07/27 09:28:26;;;;;;;1.93;0.87;;;;;;;23.86;38.57;99755.44;6247278;28;20416;-72
2023/07/27 09:31:32;;;;;;;2.95;0.70;;;;;;;23.93;38.41;99743.03;6247180;28;20398;-72
2023/07/27 09:34:33;;;;;;;1.30;0.60;;;;;;;24.29;40.90;99749.34;6247058;28;20072;-72
2023/07/27 09:37:34;;;;;;;1.43;0.80;;;;;;;24.34;38.92;99738.97;6246145;28;20053;-72
2023/07/27 09:40:36;;;;;;;2.63;0.60;;;;;;;24.50;38.23;99745.88;6247232;28;20137;-73
2023/07/27 09:43:38;;;;;;;1.70;0.60;;;;;;;24.23;36.39;99748.25;6246886;28;20279;-72
2023/07/27 09:46:40;;;;;;;0.73;0.60;;;;;;;23.86;36.62;99752.78;6246802;28;20523;-72
2023/07/27 09:49:41;;;;;;;2.45;0.63;;;;;;;24.05;36.74;99739.88;6246750;28;20060;-73
2023/07/27 09:52:44;;;;;;;1.00;0.80;;;;;;;24.13;38.18;99742.41;6247112;28;20045;-72
2023/07/27 09:55:45;;;;;;;2.20;0.90;;;;;;;24.57;36.48;99740.63;6246824;28;20111;-73
2023/07/27 09:58:46;;;;;;;0.53;0.40;;;;;;;25.26;38.67;99735.38;6245783;28;20050;-72
2023/07/27 10:01:49;;;;;;;4.32;0.80;;;;;;;25.32;36.41;99744.44;6246880;28;20060;-73
2023/07/27 10:04:50;;;;;;;0.65;0.57;;;;;;;25.56;36.07;99736.97;6246015;28;20060;-73
2023/07/27 10:07:51;;;;;;;0.68;0.50;;;;;;;25.80;35.62;99736.44;6246729;28;20042;-72
2023/07/27 10:10:53;;;;;;;0.67;0.50;;;;;;;26.29;34.36;99737.19;6245801;28;20054;-73
2023/07/27 10:13:55;;;;;;;0.90;0.77;;;;;;;25.98;35.47;99735.91;6245726;28;20059;-72
2023/07/27 10:17:03;;;;;;;2.25;0.90;;;;;;;26.65;35.65;99722.66;6246505;28;20049;-73
2023/07/27 10:20:37;;;;;;;1.02;0.50;;;;;;;25.92;35.02;99731.34;6246744;28;20053;-73
2023/07/27 10:23:54;;;;;;;0.60;0.60;;;;;;;24.53;37.14;99729.50;6250287;28;20052;-72
2023/07/27 10:26:57;;;;;;;0.93;0.60;;;;;;;24.65;37.01;99727.16;6264021;28;20045;-73
2023/07/27 10:30:12;;;;;;;1.30;0.60;;;;;;;24.47;35.90;99735.59;6276178;28;20060;-73
2023/07/27 10:33:19;;;;;;;1.05;0.50;;;;;;;26.27;36.91;99729.38;6274772;28;20049;-73
2023/07/27 10:36:23;;;;;;;1.13;0.68;;;;;;;26.67;32.80;99724.06;6275989;28;20515;-73
2023/07/27 10:39:44;;;;;;;1.05;0.70;;;;;;;25.99;36.30;99718.84;6256646;28;20053;-72
2023/07/27 10:42:55;;;;;;;1.65;0.70;;;;;;;25.62;34.19;99715.63;6260304;28;20413;-73
2023/07/27 10:45:56;;;;;;;1.63;0.65;;;;;;;25.02;36.29;99709.13;6250953;28;20053;-73
2023/07/27 10:48:58;;;;;;;1.00;0.60;;;;;;;25.80;37.50;99708.88;6269924;28;20061;-72
2023/07/27 10:52:01;;;;;;;1.05;0.60;;;;;;;26.53;35.25;99703.69;6274220;28;20052;-73
2023/07/27 10:55:04;;;;;;;0.50;0.50;;;;;;;26.73;34.44;99704.53;6275675;28;20099;-73
2023/07/27 10:58:08;;;;;;;0.93;0.60;;;;;;;26.91;33.63;99700.34;6274017;28;20049;-73
2023/07/27 11:01:09;;;;;;;0.68;0.50;;;;;;;27.56;34.96;99697.72;6251348;28;20053;-73
2023/07/27 11:04:10;;;;;;;1.45;0.50;;;;;;;25.98;33.29;99703.81;6240002;28;20482;-73
2023/07/27 11:07:11;;;;;;;2.33;0.73;;;;;;;25.94;35.18;99697.22;6242147;28;20053;-72
2023/07/27 11:10:20;;;;;;;1.17;0.57;;;;;;;26.79;36.90;99691.31;6229152;28;20085;-72
2023/07/27 11:13:24;;;;;;;2.88;0.70;;;;;;;27.47;34.43;99696.34;6233623;28;20419;-73
2023/07/27 11:16:25;;;;;;;1.35;0.95;;;;;;;25.99;34.06;99692.13;6229117;28;20049;-73
2023/07/27 11:19:28;;;;;;;0.73;0.50;;;;;;;26.13;34.69;99688.44;6230824;28;20476;-73
2023/07/27 11:22:28;;;;;;;0.73;0.63;;;;;;;25.87;36.41;99691.03;6234718;28;20049;-73
2023/07/27 11:25:33;;;;;;;1.53;0.60;;;;;;;26.42;36.15;99688.22;6233628;28;20515;-73
2023/07/27 11:28:35;;;;;;;0.93;0.68;;;;;;;27.19;35.11;99686.69;6234793;28;20099;-73
2023/07/27 11:31:35;;;;;;;;;;;;;;;26.98;33.32;99679.78;6241955;28;20409;-72
2023/07/27 11:34:37;;;;;;;1.97;0.80;;;;;;;27.25;34.16;99683.22;6238082;28;19929;-73
2023/07/27 11:37:37;;;;;;;0.85;0.77;;;;;;;27.89;35.14;99673.44;6237375;28;20496;-73
2023/07/27 11:40:44;;;;;;;1.63;0.60;;;;;;;28.36;33.40;99674.97;6254841;28;20045;-73
2023/07/27 11:43:44;;;;;;;1.02;0.60;;;;;;;26.93;34.16;99672.38;6253626;28;20283;-73
2023/07/27 11:46:51;;;;;;;0.60;0.40;;;;;;;26.99;31.67;99669.88;6229939;28;20053;-73
2023/07/27 11:49:55;;;;;;;1.30;0.90;;;;;;;26.07;33.52;99665.19;6246381;28;20051;-72
2023/07/27 11:53:02;;;;;;;1.63;0.60;;;;;;;25.63;35.49;99669.16;6249583;28;20045;-72
2023/07/27 11:56:08;;;;;;;1.75;0.60;;;;;;;26.11;36.49;99673.63;6248095;28;20053;-72
2023/07/27 11:59:09;;;;;;;1.70;0.63;;;;;;;26.36;34.65;99662.31;6256672;28;20045;-72
2023/07/27 12:02:10;;;;;;;2.80;0.90;;;;;;;26.08;35.16;99664.16;6253399;28;20052;-73
2023/07/27 12:05:15;;;;;;;0.80;0.53;;;;;;;25.28;35.95;99657.75;6248747;28;20282;-73
2023/07/27 12:08:21;;;;;;;0.98;0.63;;;;;;;25.07;39.32;99656.81;6242486;28;20045;-72
2023/07/27 12:11:26;;;;;;;1.50;0.60;;;;;;;25.91;37.17;99657.56;6251873;28;20056;-72
2023/07/27 12:14:32;;;;;;;1.20;0.80;;;;;;;26.68;35.28;99648.09;6243914;28;20053;-72
2023/07/27 12:17:35;;;;;;;1.17;0.55;;;;;;;27.19;32.83;99641.19;6241564;28;20409;-72
2023/07/27 12:20:36;;;;;;;1.05;0.55;;;;;;;27.20;33.78;99644.69;6248657;28;20099;-72
2023/07/27 12:23:37;;;;;;;0.55;0.52;;;;;;;26.54;33.76;99639.28;6254979;28;20061;-72
2023/07/27 12:26:38;;;;;;;0.68;0.68;;;;;;;25.82;38.23;99642.69;6259078;28;20496;-72
2023/07/27 12:29:39;;;;;;;2.08;0.68;;;;;;;25.62;38.12;99640.00;6241404;28;20049;-72
2023/07/27 12:32:42;;;;;;;1.20;0.80;;;;;;;26.23;37.47;99634.56;6234031;28;20099;-72
2023/07/27 12:35:43;;;;;;;1.83;0.80;;;;;;;26.99;36.82;99630.53;6248988;28;20049;-72
2023/07/27 12:38:45;;;;;;;0.63;0.60;;;;;;;27.28;34.05;99629.25;6238333;28;20683;-73
2023/07/27 12:41:46;;;;;;;1.27;0.80;;;;;;;27.34;35.55;99630.22;6247709;28;20052;-72
2023/07/27 12:44:50;;;;;;;1.13;0.80;;;;;;;27.80;36.21;99622.94;6239087;28;20048;-72
2023/07/27 12:47:51;;;;;;;1.15;0.60;;;;;;;26.79;33.48;99621.75;6248126;28;20414;-72
2023/07/27 12:50:51;;;;;;;1.47;0.93;;;;;;;27.05;33.70;99621.66;6246643;28;20053;-72
2023/07/27 12:53:52;;;;;;;2.33;0.70;;;;;;;27.14;35.05;99617.72;6246925;28;20289;-73
2023/07/27 12:56:53;;;;;;;1.73;0.93;;;;;;;27.16;35.94;99620.19;6246187;28;20060;-72
2023/07/27 12:59:54;;;;;;;2.25;0.63;;;;;;;27.55;32.77;99615.72;6265669;28;20045;-73
2023/07/27 13:02:55;;;;;;;0.68;0.60;;;;;;;27.65;34.23;99613.34;6271421;28;20135;-73
2023/07/27 13:05:56;;;;;;;1.10;0.60;;;;;;;27.66;33.97;99619.56;6254089;28;20386;-72
2023/07/27 13:08:57;;;;;;;1.73;0.60;;;;;;;27.54;34.68;99617.53;6237923;28;20060;-72
2023/07/27 13:11:57;;;;;;;1.00;0.75;;;;;;;26.22;34.54;99619.53;6239328;28;20140;-72
2023/07/27 13:15:01;;;;;;;0.77;0.70;;;;;;;25.91;35.96;99617.47;6245069;28;20049;-72
2023/07/27 13:18:05;;;;;;;1.23;0.80;;;;;;;26.41;34.60;99620.56;6247353;28;20370;-72
2023/07/27 13:21:05;;;;;;;1.25;0.70;;;;;;;27.10;33.76;99621.03;6246188;28;20413;-72
2023/07/27 13:24:06;;;;;;;2.05;0.77;;;;;;;27.55;33.83;99626.44;6244685;28;20099;-73
2023/07/27 13:27:09;;;;;;;4.53;0.73;;;;;;;26.64;34.53;99622.81;6260558;28;20481;-73
2023/07/27 13:30:11;;;;;;;0.80;0.45;;;;;;;27.21;35.46;99616.88;6244505;28;20286;-72
2023/07/27 13:33:11;;;;;;;0.90;0.60;;;;;;;27.13;33.60;99618.75;6250613;28;20107;-72
2023/07/27 13:36:12;;;;;;;1.05;0.70;;;;;;;27.12;35.88;99616.31;6243665;28;20049;-72
2023/07/27 13:39:13;;;;;;;0.50;0.50;;;;;;;27.24;33.89;99619.13;6234151;28;20044;-73
2023/07/27 13:42:14;;;;;;;2.23;0.53;;;;;;;27.03;34.12;99617.56;6247207;28;20291;-72
2023/07/27 13:45:15;;;;;;;1.48;0.88;;;;;;;27.18;35.50;99618.13;6245881;28;20053;-72
2023/07/27 13:48:17;;;;;;;2.43;0.73;;;;;;;27.48;37.50;99612.22;6239973;28;20559;-70
2023/07/27 13:51:18;;;;;;;1.52;0.68;;;;;;;27.36;34.32;99606.72;6245514;28;20286;-69
2023/07/27 13:54:19;;;;;;;1.40;0.70;;;;;;;27.24;35.72;99609.28;6247315;28;20056;-70
2023/07/27 13:57:20;;;;;;;0.93;0.60;;;;;;;26.99;35.73;99609.13;6263722;28;20505;-72
2023/07/27 14:00:21;;;;;;;1.65;0.77;;;;;;;27.21;34.10;99601.63;6273655;28;20045;-72
2023/07/27 14:03:22;;;;;;;1.50;0.88;;;;;;;27.36;34.51;99603.22;6254529;28;20081;-72
2023/07/27 14:06:22;;;;;;;0.52;0.35;;;;;;;27.04;33.50;99597.81;6250943;28;20507;-72
2023/07/27 14:09:25;;;;;;;3.55;0.63;;;;;;;26.96;34.84;99601.53;6250706;28;20409;-72
2023/07/27 14:12:26;;;;;;;0.93;0.52;;;;;;;26.89;34.77;99600.72;6251658;28;20049;-72
2023/07/27 14:15:26;;;;;;;2.17;0.70;;;;;;;26.25;32.63;99597.75;6251609;28;20049;-72
2023/07/27 14:18:30;;;;;;;1.33;0.77;;;;;;;25.88;34.06;99591.13;6251512;28;20545;-72
2023/07/27 14:21:30;;;;;;;0.80;0.55;;;;;;;25.67;33.67;99600.13;6268735;28;20282;-72
2023/07/27 14:24:32;;;;;;;3.87;0.67;;;;;;;25.49;35.36;99595.38;6275111;28;20049;-73
2023/07/27 14:27:35;;;;;;;1.33;0.60;;;;;;;25.18;35.56;99595.88;6265446;28;20111;-72
2023/07/27 14:30:36;;;;;;;2.05;0.80;;;;;;;25.22;36.93;99595.28;6251105;28;20058;-73
2023/07/27 14:33:37;;;;;;;3.33;1.20;;;;;;;25.57;35.72;99592.50;6251514;28;20512;-72